sensor_id;sensor_type;location;lat;lon;timestamp;pressure;altitude;pressure_sealevel;temperature;humidity
73941;BME280;62294;48.554;10.202;2023-11-19T00:01:58;96141.69;;;4.88;100.00
73941;BME280;62294;48.554;10.202;2023-11-19T00:04:25;96145.59;;;4.92;100.00
73941;BME280;62294;48.554;10.202;2023-11-19T00:06:51;96143.59;;;4.94;100.00
73941;BME280;62294;48.554;10.202;2023-11-19T00:09:18;96145.59;;;4.92;100.00
73941;BME280;62294;48.554;10.202;2023-11-19T00:11:44;96130.13;;;4.89;100.00
73941;BME280;62294;48.554;10.202;2023-11-19T00:14:20;96123.88;;;4.90;100.00
73941;BME280;62294;48.554;10.202;2023-11-19T00:16:46;96113.34;;;4.90;100.00
73941;BME280;62294;48.554;10.202;2023-11-19T00:19:13;96101.16;;;4.89;100.00
73941;BME280;62294;48.554;10.202;2023-11-19T00:21:40;96086.81;;;4.91;100.00
73941;BME280;62294;48.554;10.202;2023-11-19T00:24:07;96079.94;;;4.90;100.00
73941;BME280;62294;48.554;10.202;2023-11-19T00:26:34;96068.75;;;4.88;100.00
73941;BME280;62294;48.554;10.202;2023-11-19T00:29:01;96075.66;;;4.89;100.00
73941;BME280;62294;48.554;10.202;2023-11-19T00:31:27;96072.22;;;4.89;100.00
73941;BME280;62294;48.554;10.202;2023-11-19T00:33:54;96062.50;;;4.89;100.00
73941;BME280;62294;48.554;10.202;2023-11-19T00:36:21;96056.41;;;4.89;100.00
73941;BME280;62294;48.554;10.202;2023-11-19T00:38:51;96048.34;;;4.90;100.00
73941;BME280;62294;48.554;10.202;2023-11-19T00:41:19;96042.88;;;4.92;100.00
73941;BME280;62294;48.554;10.202;2023-11-19T00:43:45;96050.22;;;4.96;100.00
73941;BME280;62294;48.554;10.202;2023-11-19T00:46:12;96055.50;;;4.96;100.00
73941;BME280;62294;48.554;10.202;2023-11-19T00:48:40;96047.41;;;4.98;100.00
73941;BME280;62294;48.554;10.202;2023-11-19T00:51:07;96056.94;;;4.99;100.00
73941;BME280;62294;48.554;10.202;2023-11-19T00:53:34;96057.56;;;5.01;100.00
73941;BME280;62294;48.554;10.202;2023-11-19T00:56:00;96051.28;;;5.02;100.00
73941;BME280;62294;48.554;10.202;2023-11-19T00:58:27;96040.94;;;5.00;100.00
73941;BME280;62294;48.554;10.202;2023-11-19T01:00:53;96034.06;;;4.99;100.00
73941;BME280;62294;48.554;10.202;2023-11-19T01:03:20;96026.78;;;5.01;100.00
73941;BME280;62294;48.554;10.202;2023-11-19T01:05:47;96025.16;;;5.00;100.00
73941;BME280;62294;48.554;10.202;2023-11-19T01:08:14;96015.44;;;5.01;100.00
73941;BME280;62294;48.554;10.202;2023-11-19T01:10:42;96016.06;;;5.03;100.00
73941;BME280;62294;48.554;10.202;2023-11-19T01:13:09;96011.44;;;5.05;100.00
73941;BME280;62294;48.554;10.202;2023-11-19T01:15:36;96007.81;;;5.06;100.00
73941;BME280;62294;48.554;10.202;2023-11-19T01:18:02;96004.16;;;5.07;100.00
73941;BME280;62294;48.554;10.202;2023-11-19T01:20:31;95983.06;;;5.07;100.00
73941;BME280;62294;48.554;10.202;2023-11-19T01:23:00;95994.88;;;5.11;100.00
73941;BME280;62294;48.554;10.202;2023-11-19T01:25:27;95984.31;;;5.11;100.00
73941;BME280;62294;48.554;10.202;2023-11-19T01:27:53;95975.44;;;5.12;100.00
73941;BME280;62294;48.554;10.202;2023-11-19T01:30:20;95967.34;;;5.14;100.00
73941;BME280;62294;48.554;10.202;2023-11-19T01:32:46;95960.88;;;5.16;100.00
73941;BME280;62294;48.554;10.202;2023-11-19T01:35:13;95955.59;;;5.16;100.00
73941;BME280;62294;48.554;10.202;2023-11-19T01:37:41;95954.63;;;5.17;100.00
73941;BME280;62294;48.554;10.202;2023-11-19T01:40:08;95938.63;;;5.19;100.00
73941;BME280;62294;48.554;10.202;2023-11-19T01:42:40;95923.63;;;5.19;100.00
73941;BME280;62294;48.554;10.202;2023-11-19T01:45:07;95911.91;;;5.22;100.00
73941;BME280;62294;48.554;10.202;2023-11-19T01:47:37;95912.53;;;5.24;100.00
73941;BME280;62294;48.554;10.202;2023-11-19T01:50:06;95904.25;;;5.27;100.00
73941;BME280;62294;48.554;10.202;2023-11-19T01:52:34;95898.16;;;5.26;100.00
73941;BME280;62294;48.554;10.202;2023-11-19T01:55:07;95900.59;;;5.28;100.00
73941;BME280;62294;48.554;10.202;2023-11-19T01:57:35;95882.78;;;5.30;100.00
73941;BME280;62294;48.554;10.202;2023-11-19T02:00:06;95894.13;;;5.30;100.00
73941;BME280;62294;48.554;10.202;2023-11-19T02:02:32;95886.22;;;5.30;100.00
73941;BME280;62294;48.554;10.202;2023-11-19T02:05:00;95892.13;;;5.32;100.00
73941;BME280;62294;48.554;10.202;2023-11-19T02:07:26;95881.56;;;5.32;100.00
73941;BME280;62294;48.554;10.202;2023-11-19T02:09:53;95876.13;;;5.34;100.00
73941;BME280;62294;48.554;10.202;2023-11-19T02:12:20;95867.00;;;5.36;100.00
73941;BME280;62294;48.554;10.202;2023-11-19T02:14:46;95852.84;;;5.37;100.00
73941;BME280;62294;48.554;10.202;2023-11-19T02:17:30;95811.09;;;5.41;100.00
73941;BME280;62294;48.554;10.202;2023-11-19T02:20:00;95755.56;;;5.42;100.00
73941;BME280;62294;48.554;10.202;2023-11-19T02:22:27;95662.31;;;5.43;100.00
73941;BME280;62294;48.554;10.202;2023-11-19T02:25:00;95633.94;;;5.45;100.00
73941;BME280;62294;48.554;10.202;2023-11-19T02:27:43;95644.09;;;5.48;100.00
73941;BME280;62294;48.554;10.202;2023-11-19T02:30:11;95640.84;;;5.53;100.00
73941;BME280;62294;48.554;10.202;2023-11-19T02:32:41;95630.13;;;5.54;100.00
73941;BME280;62294;48.554;10.202;2023-11-19T02:35:08;95635.00;;;5.57;100.00
73941;BME280;62294;48.554;10.202;2023-11-19T02:37:34;95624.44;;;5.57;100.00
73941;BME280;62294;48.554;10.202;2023-11-19T02:40:01;95620.81;;;5.58;100.00
73941;BME280;62294;48.554;10.202;2023-11-19T02:42:29;95621.44;;;5.60;100.00
73941;BME280;62294;48.554;10.202;2023-11-19T02:44:57;95610.88;;;5.60;100.00
73941;BME280;62294;48.554;10.202;2023-11-19T02:47:23;95601.94;;;5.61;100.00
73941;BME280;62294;48.554;10.202;2023-11-19T02:49:50;95586.13;;;5.61;100.00
73941;BME280;62294;48.554;10.202;2023-11-19T02:52:17;95581.69;;;5.62;100.00
73941;BME280;62294;48.554;10.202;2023-11-19T02:54:45;95527.13;;;5.62;100.00
73941;BME280;62294;48.554;10.202;2023-11-19T02:57:12;95484.56;;;5.65;100.00
73941;BME280;62294;48.554;10.202;2023-11-19T02:59:48;95496.53;;;5.68;100.00
73941;BME280;62294;48.554;10.202;2023-11-19T03:02:15;95507.88;;;5.68;100.00
73941;BME280;62294;48.554;10.202;2023-11-19T03:04:44;95516.81;;;5.67;100.00
73941;BME280;62294;48.554;10.202;2023-11-19T03:07:12;95519.22;;;5.69;100.00
73941;BME280;62294;48.554;10.202;2023-11-19T03:09:39;95519.84;;;5.71;100.00
73941;BME280;62294;48.554;10.202;2023-11-19T03:12:07;95529.38;;;5.72;100.00
73941;BME280;62294;48.554;10.202;2023-11-19T03:14:33;95524.50;;;5.75;100.00
73941;BME280;62294;48.554;10.202;2023-11-19T03:17:01;95522.69;;;5.76;100.00
73941;BME280;62294;48.554;10.202;2023-11-19T03:19:28;95510.31;;;5.77;100.00
73941;BME280;62294;48.554;10.202;2023-11-19T03:21:54;95516.81;;;5.81;100.00
73941;BME280;62294;48.554;10.202;2023-11-19T03:24:21;95507.25;;;5.80;100.00
73941;BME280;62294;48.554;10.202;2023-11-19T03:26:48;95503.41;;;5.82;100.00
73941;BME280;62294;48.554;10.202;2023-11-19T03:29:17;95505.03;;;5.83;100.00
73941;BME280;62294;48.554;10.202;2023-11-19T03:31:43;95491.69;;;5.85;100.00
73941;BME280;62294;48.554;10.202;2023-11-19T03:34:11;95505.88;;;5.90;100.00
73941;BME280;62294;48.554;10.202;2023-11-19T03:36:38;95503.03;;;5.92;100.00
73941;BME280;62294;48.554;10.202;2023-11-19T03:39:04;95501.22;;;5.92;100.00
73941;BME280;62294;48.554;10.202;2023-11-19T03:41:31;95500.22;;;5.93;100.00
73941;BME280;62294;48.554;10.202;2023-11-19T03:44:07;95500.22;;;5.93;100.00
73941;BME280;62294;48.554;10.202;2023-11-19T03:46:34;95505.88;;;5.97;100.00
73941;BME280;62294;48.554;10.202;2023-11-19T03:49:01;95498.56;;;5.99;100.00
73941;BME280;62294;48.554;10.202;2023-11-19T03:51:29;95490.88;;;5.97;100.00
73941;BME280;62294;48.554;10.202;2023-11-19T03:53:55;95490.06;;;5.97;100.00
73941;BME280;62294;48.554;10.202;2023-11-19T03:56:21;95456.38;;;5.99;100.00
73941;BME280;62294;48.554;10.202;2023-11-19T03:58:48;95416.81;;;5.99;100.00
73941;BME280;62294;48.554;10.202;2023-11-19T04:01:15;95329.13;;;6.03;100.00
73941;BME280;62294;48.554;10.202;2023-11-19T04:03:41;95330.56;;;6.06;100.00
73941;BME280;62294;48.554;10.202;2023-11-19T04:06:11;95315.53;;;6.06;100.00
73941;BME280;62294;48.554;10.202;2023-11-19T04:08:37;95281.03;;;6.08;100.00
73941;BME280;62294;48.554;10.202;2023-11-19T04:11:04;95289.75;;;6.08;100.00
73941;BME280;62294;48.554;10.202;2023-11-19T04:13:31;95281.44;;;6.11;100.00
73941;BME280;62294;48.554;10.202;2023-11-19T04:15:58;95279.41;;;6.13;100.00
73941;BME280;62294;48.554;10.202;2023-11-19T04:18:24;95280.41;;;6.12;100.00
73941;BME280;62294;48.554;10.202;2023-11-19T04:20:51;95270.84;;;6.18;100.00
73941;BME280;62294;48.554;10.202;2023-11-19T04:23:17;95224.16;;;6.18;100.00
73941;BME280;62294;48.554;10.202;2023-11-19T04:25:44;95220.28;;;6.21;100.00
73941;BME280;62294;48.554;10.202;2023-11-19T04:28:10;95199.41;;;6.19;100.00
73941;BME280;62294;48.554;10.202;2023-11-19T04:30:37;95201.03;;;6.20;100.00
73941;BME280;62294;48.554;10.202;2023-11-19T04:33:04;95177.28;;;6.20;100.00
73941;BME280;62294;48.554;10.202;2023-11-19T04:35:32;95163.69;;;6.17;100.00
73941;BME280;62294;48.554;10.202;2023-11-19T04:37:58;95175.06;;;6.17;100.00
73941;BME280;62294;48.554;10.202;2023-11-19T04:40:25;95215.44;;;6.18;100.00
73941;BME280;62294;48.554;10.202;2023-11-19T04:42:52;95195.34;;;6.17;100.00
73941;BME280;62294;48.554;10.202;2023-11-19T04:45:19;95194.50;;;6.23;100.00
73941;BME280;62294;48.554;10.202;2023-11-19T04:47:46;95183.94;;;6.23;100.00
73941;BME280;62294;48.554;10.202;2023-11-19T04:50:13;95168.50;;;6.26;100.00
73941;BME280;62294;48.554;10.202;2023-11-19T04:52:39;95142.72;;;6.28;100.00
73941;BME280;62294;48.554;10.202;2023-11-19T04:55:07;95143.88;;;6.32;100.00
73941;BME280;62294;48.554;10.202;2023-11-19T04:57:33;95117.91;;;6.36;100.00
73941;BME280;62294;48.554;10.202;2023-11-19T05:00:00;95078.66;;;6.39;100.00
73941;BME280;62294;48.554;10.202;2023-11-19T05:02:27;95080.06;;;6.42;100.00
73941;BME280;62294;48.554;10.202;2023-11-19T05:04:53;95073.78;;;6.43;100.00
73941;BME280;62294;48.554;10.202;2023-11-19T05:07:20;95083.31;;;6.44;100.00
73941;BME280;62294;48.554;10.202;2023-11-19T05:09:46;95084.94;;;6.45;100.00
73941;BME280;62294;48.554;10.202;2023-11-19T05:12:13;95090.56;;;6.49;100.00
73941;BME280;62294;48.554;10.202;2023-11-19T05:14:40;95089.75;;;6.48;100.00
73941;BME280;62294;48.554;10.202;2023-11-19T05:17:06;94935.22;;;6.52;100.00
73941;BME280;62294;48.554;10.202;2023-11-19T05:19:34;94862.91;;;6.53;100.00
73941;BME280;62294;48.554;10.202;2023-11-19T05:22:00;94878.31;;;6.56;100.00
73941;BME280;62294;48.554;10.202;2023-11-19T05:24:27;94907.94;;;6.58;100.00
73941;BME280;62294;48.554;10.202;2023-11-19T05:26:54;94911.38;;;6.59;100.00
73941;BME280;62294;48.554;10.202;2023-11-19T05:29:20;94915.63;;;6.60;100.00
73941;BME280;62294;48.554;10.202;2023-11-19T05:31:47;94921.72;;;6.60;100.00
73941;BME280;62294;48.554;10.202;2023-11-19T05:34:14;94931.25;;;6.61;100.00
73941;BME280;62294;48.554;10.202;2023-11-19T05:36:41;94916.81;;;6.64;100.00
73941;BME280;62294;48.554;10.202;2023-11-19T05:39:07;94917.00;;;6.62;100.00
73941;BME280;62294;48.554;10.202;2023-11-19T05:41:35;94904.63;;;6.63;100.00
73941;BME280;62294;48.554;10.202;2023-11-19T05:44:01;94911.06;;;6.67;100.00
73941;BME280;62294;48.554;10.202;2023-11-19T05:46:28;94901.75;;;6.64;100.00
73941;BME280;62294;48.554;10.202;2023-11-19T05:48:55;94911.28;;;6.65;100.00
73941;BME280;62294;48.554;10.202;2023-11-19T05:51:22;94911.88;;;6.67;100.00
73941;BME280;62294;48.554;10.202;2023-11-19T05:53:50;94931.75;;;6.70;100.00
73941;BME280;62294;48.554;10.202;2023-11-19T05:56:16;94922.19;;;6.69;100.00
73941;BME280;62294;48.554;10.202;2023-11-19T05:58:48;94934.63;;;6.68;100.00
73941;BME280;62294;48.554;10.202;2023-11-19T06:01:18;94936.22;;;6.69;100.00
73941;BME280;62294;48.554;10.202;2023-11-19T06:03:45;94933.56;;;6.69;100.00
73941;BME280;62294;48.554;10.202;2023-11-19T06:06:16;94937.84;;;6.70;100.00
73941;BME280;62294;48.554;10.202;2023-11-19T06:08:42;94937.84;;;6.70;100.00
73941;BME280;62294;48.554;10.202;2023-11-19T06:11:10;94933.16;;;6.72;100.00
73941;BME280;62294;48.554;10.202;2023-11-19T06:13:40;94940.25;;;6.72;100.00
73941;BME280;62294;48.554;10.202;2023-11-19T06:16:07;94946.78;;;6.69;100.00
73941;BME280;62294;48.554;10.202;2023-11-19T06:18:36;94948.41;;;6.70;100.00
73941;BME280;62294;48.554;10.202;2023-11-19T06:21:03;94949.22;;;6.71;100.00
73941;BME280;62294;48.554;10.202;2023-11-19T06:23:29;94943.72;;;6.72;100.00
73941;BME280;62294;48.554;10.202;2023-11-19T06:25:56;94944.28;;;6.74;100.00
73941;BME280;62294;48.554;10.202;2023-11-19T06:28:23;94941.66;;;6.74;100.00
73941;BME280;62294;48.554;10.202;2023-11-19T06:30:49;94937.75;;;6.77;100.00
73941;BME280;62294;48.554;10.202;2023-11-19T06:33:16;94953.38;;;6.78;100.00
73941;BME280;62294;48.554;10.202;2023-11-19T06:35:43;94954.19;;;6.79;100.00
73941;BME280;62294;48.554;10.202;2023-11-19T06:38:10;94949.13;;;6.77;100.00
73941;BME280;62294;48.554;10.202;2023-11-19T06:40:37;94947.06;;;6.79;100.00
73941;BME280;62294;48.554;10.202;2023-11-19T06:43:03;94950.28;;;6.81;100.00
73941;BME280;62294;48.554;10.202;2023-11-19T06:45:30;94953.50;;;6.83;100.00
73941;BME280;62294;48.554;10.202;2023-11-19T06:47:57;94966.94;;;6.82;100.00
73941;BME280;62294;48.554;10.202;2023-11-19T06:50:42;94968.78;;;6.81;100.00
73941;BME280;62294;48.554;10.202;2023-11-19T06:53:09;94971.00;;;6.84;100.00
73941;BME280;62294;48.554;10.202;2023-11-19T06:55:37;94959.38;;;6.85;100.00
73941;BME280;62294;48.554;10.202;2023-11-19T06:58:03;94966.06;;;6.88;100.00
73941;BME280;62294;48.554;10.202;2023-11-19T07:00:30;94964.81;;;6.90;100.00
73941;BME280;62294;48.554;10.202;2023-11-19T07:02:59;94961.72;;;6.93;100.00
73941;BME280;62294;48.554;10.202;2023-11-19T07:05:26;94960.25;;;6.97;100.00
73941;BME280;62294;48.554;10.202;2023-11-19T07:07:53;94963.03;;;7.02;100.00
73941;BME280;62294;48.554;10.202;2023-11-19T07:10:20;94963.63;;;7.04;100.00
73941;BME280;62294;48.554;10.202;2023-11-19T07:12:47;94975.19;;;7.03;100.00
73941;BME280;62294;48.554;10.202;2023-11-19T07:15:16;94965.22;;;7.05;100.00
73941;BME280;62294;48.554;10.202;2023-11-19T07:17:44;94980.84;;;7.07;100.00
73941;BME280;62294;48.554;10.202;2023-11-19T07:20:11;94954.44;;;7.07;100.00
73941;BME280;62294;48.554;10.202;2023-11-19T07:22:44;94967.41;;;7.08;100.00
73941;BME280;62294;48.554;10.202;2023-11-19T07:25:15;94967.56;;;7.13;100.00
73941;BME280;62294;48.554;10.202;2023-11-19T07:27:42;94953.88;;;7.16;100.00
73941;BME280;62294;48.554;10.202;2023-11-19T07:30:09;94934.38;;;7.18;100.00
73941;BME280;62294;48.554;10.202;2023-11-19T07:32:36;94942.88;;;7.20;100.00
73941;BME280;62294;48.554;10.202;2023-11-19T07:35:06;94939.56;;;7.24;100.00
73941;BME280;62294;48.554;10.202;2023-11-19T07:37:33;94945.22;;;7.28;100.00
73941;BME280;62294;48.554;10.202;2023-11-19T07:40:00;94937.63;;;7.31;100.00
73941;BME280;62294;48.554;10.202;2023-11-19T07:42:26;94939.59;;;7.36;100.00
73941;BME280;62294;48.554;10.202;2023-11-19T07:44:52;94952.81;;;7.36;100.00
73941;BME280;62294;48.554;10.202;2023-11-19T07:47:22;94931.22;;;7.39;100.00
73941;BME280;62294;48.554;10.202;2023-11-19T07:49:50;94937.09;;;7.41;100.00
73941;BME280;62294;48.554;10.202;2023-11-19T07:52:17;94934.56;;;7.46;100.00
73941;BME280;62294;48.554;10.202;2023-11-19T07:54:47;94935.97;;;7.48;100.00
73941;BME280;62294;48.554;10.202;2023-11-19T07:57:14;94941.59;;;7.52;100.00
73941;BME280;62294;48.554;10.202;2023-11-19T07:59:40;94934.81;;;7.56;100.00
73941;BME280;62294;48.554;10.202;2023-11-19T08:02:07;94942.28;;;7.59;100.00
73941;BME280;62294;48.554;10.202;2023-11-19T08:04:34;94947.13;;;7.62;100.00
73941;BME280;62294;48.554;10.202;2023-11-19T08:07:01;94944.38;;;7.68;100.00
73941;BME280;62294;48.554;10.202;2023-11-19T08:09:28;94951.28;;;7.69;100.00
73941;BME280;62294;48.554;10.202;2023-11-19T08:11:54;94944.84;;;7.77;100.00
73941;BME280;62294;48.554;10.202;2023-11-19T08:14:22;94931.75;;;7.82;100.00
73941;BME280;62294;48.554;10.202;2023-11-19T08:16:50;94931.97;;;7.92;100.00
73941;BME280;62294;48.554;10.202;2023-11-19T08:19:16;94937.25;;;7.92;100.00
73941;BME280;62294;48.554;10.202;2023-11-19T08:21:43;94946.38;;;7.96;100.00
73941;BME280;62294;48.554;10.202;2023-11-19T08:24:10;94950.16;;;7.88;100.00
73941;BME280;62294;48.554;10.202;2023-11-19T08:26:36;94948.78;;;7.86;100.00
73941;BME280;62294;48.554;10.202;2023-11-19T08:29:02;94956.13;;;7.84;100.00
73941;BME280;62294;48.554;10.202;2023-11-19T08:31:30;94955.69;;;7.87;100.00
73941;BME280;62294;48.554;10.202;2023-11-19T08:33:56;94954.06;;;7.86;100.00
73941;BME280;62294;48.554;10.202;2023-11-19T08:36:22;94961.31;;;7.91;100.00
73941;BME280;62294;48.554;10.202;2023-11-19T08:38:49;94962.13;;;7.91;100.00
73941;BME280;62294;48.554;10.202;2023-11-19T08:41:16;94954.19;;;8.03;100.00
73941;BME280;62294;48.554;10.202;2023-11-19T08:43:45;94947.16;;;8.08;100.00
73941;BME280;62294;48.554;10.202;2023-11-19T08:46:11;94941.75;;;8.15;100.00
73941;BME280;62294;48.554;10.202;2023-11-19T08:48:38;94942.13;;;8.18;100.00
73941;BME280;62294;48.554;10.202;2023-11-19T08:51:05;94937.97;;;8.22;100.00
73941;BME280;62294;48.554;10.202;2023-11-19T08:53:32;94941.31;;;8.29;100.00
73941;BME280;62294;48.554;10.202;2023-11-19T08:55:58;94927.63;;;8.32;100.00
73941;BME280;62294;48.554;10.202;2023-11-19T08:58:25;94914.72;;;8.36;100.00
73941;BME280;62294;48.554;10.202;2023-11-19T09:00:52;94913.00;;;8.41;100.00
73941;BME280;62294;48.554;10.202;2023-11-19T09:03:19;94920.25;;;8.46;100.00
73941;BME280;62294;48.554;10.202;2023-11-19T09:05:46;94922.19;;;8.50;100.00
73941;BME280;62294;48.554;10.202;2023-11-19T09:08:13;94942.44;;;8.56;100.00
73941;BME280;62294;48.554;10.202;2023-11-19T09:10:39;94930.44;;;8.66;100.00
73941;BME280;62294;48.554;10.202;2023-11-19T09:13:06;94938.63;;;8.76;100.00
73941;BME280;62294;48.554;10.202;2023-11-19T09:15:32;94949.88;;;8.83;100.00
73941;BME280;62294;48.554;10.202;2023-11-19T09:17:59;94948.47;;;8.92;100.00
73941;BME280;62294;48.554;10.202;2023-11-19T09:20:26;94952.66;;;9.16;100.00
73941;BME280;62294;48.554;10.202;2023-11-19T09:22:53;94954.75;;;9.42;100.00
73941;BME280;62294;48.554;10.202;2023-11-19T09:25:19;94950.97;;;9.26;100.00
73941;BME280;62294;48.554;10.202;2023-11-19T09:27:46;94991.56;;;9.27;100.00
73941;BME280;62294;48.554;10.202;2023-11-19T09:30:13;95020.13;;;9.37;100.00
73941;BME280;62294;48.554;10.202;2023-11-19T09:32:39;95025.94;;;9.50;100.00
73941;BME280;62294;48.554;10.202;2023-11-19T09:35:07;95051.25;;;9.69;100.00
73941;BME280;62294;48.554;10.202;2023-11-19T09:37:34;95069.44;;;9.77;100.00
73941;BME280;62294;48.554;10.202;2023-11-19T09:40:01;95081.22;;;9.70;100.00
73941;BME280;62294;48.554;10.202;2023-11-19T09:42:28;95103.16;;;9.65;100.00
73941;BME280;62294;48.554;10.202;2023-11-19T09:44:56;95121.47;;;9.78;100.00
73941;BME280;62294;48.554;10.202;2023-11-19T09:47:25;95139.88;;;9.96;100.00
73941;BME280;62294;48.554;10.202;2023-11-19T09:49:51;95149.28;;;10.04;100.00
73941;BME280;62294;48.554;10.202;2023-11-19T09:52:24;95159.69;;;10.34;100.00
73941;BME280;62294;48.554;10.202;2023-11-19T09:54:51;95189.84;;;10.28;100.00
73941;BME280;62294;48.554;10.202;2023-11-19T09:57:18;95226.69;;;10.36;100.00
73941;BME280;62294;48.554;10.202;2023-11-19T09:59:46;95256.31;;;10.44;100.00
73941;BME280;62294;48.554;10.202;2023-11-19T10:02:13;95295.25;;;10.39;100.00
73941;BME280;62294;48.554;10.202;2023-11-19T10:04:42;95310.72;;;10.42;100.00
73941;BME280;62294;48.554;10.202;2023-11-19T10:07:10;95314.97;;;10.43;100.00
73941;BME280;62294;48.554;10.202;2023-11-19T10:09:38;95310.44;;;10.55;100.00
73941;BME280;62294;48.554;10.202;2023-11-19T10:12:04;95313.38;;;10.42;100.00
73941;BME280;62294;48.554;10.202;2023-11-19T10:14:31;95351.03;;;10.39;100.00
73941;BME280;62294;48.554;10.202;2023-11-19T10:17:01;95394.59;;;10.38;100.00
73941;BME280;62294;48.554;10.202;2023-11-19T10:19:31;95432.19;;;10.58;100.00
73941;BME280;62294;48.554;10.202;2023-11-19T10:22:03;95477.09;;;10.83;100.00
73941;BME280;62294;48.554;10.202;2023-11-19T10:24:33;95522.06;;;10.84;100.00
73941;BME280;62294;48.554;10.202;2023-11-19T10:27:07;95540.91;;;10.83;100.00
73941;BME280;62294;48.554;10.202;2023-11-19T10:29:37;95563.44;;;11.03;100.00
73941;BME280;62294;48.554;10.202;2023-11-19T10:32:04;95558.56;;;11.00;100.00
73941;BME280;62294;48.554;10.202;2023-11-19T10:34:51;95593.03;;;10.72;100.00
73941;BME280;62294;48.554;10.202;2023-11-19T10:37:28;95597.66;;;10.65;100.00
73941;BME280;62294;48.554;10.202;2023-11-19T10:39:56;95602.75;;;10.90;100.00
73941;BME280;62294;48.554;10.202;2023-11-19T10:42:23;95598.25;;;10.90;100.00
73941;BME280;62294;48.554;10.202;2023-11-19T10:44:50;95609.78;;;10.73;100.00
73941;BME280;62294;48.554;10.202;2023-11-19T10:47:19;95605.94;;;10.57;100.00
73941;BME280;62294;48.554;10.202;2023-11-19T10:50:04;95614.97;;;10.56;100.00
73941;BME280;62294;48.554;10.202;2023-11-19T10:52:31;95615.88;;;10.50;100.00
73941;BME280;62294;48.554;10.202;2023-11-19T10:55:00;95616.78;;;10.44;100.00
73941;BME280;62294;48.554;10.202;2023-11-19T10:57:29;95621.84;;;10.34;100.00
73941;BME280;62294;48.554;10.202;2023-11-19T11:00:00;95615.69;;;10.63;100.00
73941;BME280;62294;48.554;10.202;2023-11-19T11:02:30;95618.44;;;11.14;100.00
73941;BME280;62294;48.554;10.202;2023-11-19T11:05:01;95613.94;;;11.26;100.00
73941;BME280;62294;48.554;10.202;2023-11-19T11:07:29;95616.38;;;11.16;100.00
73941;BME280;62294;48.554;10.202;2023-11-19T11:10:07;95622.75;;;11.15;100.00
73941;BME280;62294;48.554;10.202;2023-11-19T11:12:37;95633.94;;;11.17;100.00
73941;BME280;62294;48.554;10.202;2023-11-19T11:15:10;95630.34;;;11.12;100.00
73941;BME280;62294;48.554;10.202;2023-11-19T11:17:39;95623.44;;;11.22;100.00
73941;BME280;62294;48.554;10.202;2023-11-19T11:20:08;95640.53;;;11.26;100.00
73941;BME280;62294;48.554;10.202;2023-11-19T11:22:49;95622.59;;;11.33;100.00
73941;BME280;62294;48.554;10.202;2023-11-19T11:31:25;95662.09;;;11.88;100.00
73941;BME280;62294;48.554;10.202;2023-11-19T11:37:21;95671.88;;;11.48;100.00
73941;BME280;62294;48.554;10.202;2023-11-19T11:39:51;95670.25;;;11.47;100.00
73941;BME280;62294;48.554;10.202;2023-11-19T11:45:04;95657.22;;;11.85;100.00
73941;BME280;62294;48.554;10.202;2023-11-19T11:50:17;95681.50;;;12.28;100.00
73941;BME280;62294;48.554;10.202;2023-11-19T11:58:08;95716.03;;;11.95;100.00
73941;BME280;62294;48.554;10.202;2023-11-19T12:00:40;95720.06;;;12.09;100.00
73941;BME280;62294;48.554;10.202;2023-11-19T12:03:08;95716.72;;;12.02;100.00
73941;BME280;62294;48.554;10.202;2023-11-19T12:05:42;95724.91;;;12.00;100.00
73941;BME280;62294;48.554;10.202;2023-11-19T12:08:14;95721.50;;;11.77;100.00
73941;BME280;62294;48.554;10.202;2023-11-19T12:10:52;95716.16;;;11.65;100.00
73941;BME280;62294;48.554;10.202;2023-11-19T12:13:20;95708.78;;;11.67;100.00
73941;BME280;62294;48.554;10.202;2023-11-19T12:18:27;95700.78;;;11.79;100.00
73941;BME280;62294;48.554;10.202;2023-11-19T12:20:55;95696.38;;;11.73;100.00
73941;BME280;62294;48.554;10.202;2023-11-19T12:23:22;95694.63;;;11.67;100.00
73941;BME280;62294;48.554;10.202;2023-11-19T12:25:49;95683.66;;;11.63;100.00
73941;BME280;62294;48.554;10.202;2023-11-19T12:28:16;95680.31;;;11.68;100.00
73941;BME280;62294;48.554;10.202;2023-11-19T12:30:44;95685.75;;;11.61;100.00
73941;BME280;62294;48.554;10.202;2023-11-19T12:33:12;95680.50;;;11.55;100.00
73941;BME280;62294;48.554;10.202;2023-11-19T12:35:44;95677.41;;;11.58;100.00
73941;BME280;62294;48.554;10.202;2023-11-19T12:38:25;95669.75;;;11.73;100.00
73941;BME280;62294;48.554;10.202;2023-11-19T12:41:05;95668.38;;;11.82;100.00
73941;BME280;62294;48.554;10.202;2023-11-19T12:43:32;95675.06;;;11.73;100.00
73941;BME280;62294;48.554;10.202;2023-11-19T12:46:25;95677.16;;;11.71;100.00
73941;BME280;62294;48.554;10.202;2023-11-19T12:48:53;95667.09;;;11.73;100.00
73941;BME280;62294;48.554;10.202;2023-11-19T12:51:20;95665.59;;;11.77;100.00
73941;BME280;62294;48.554;10.202;2023-11-19T12:53:48;95672.16;;;11.86;100.00
73941;BME280;62294;48.554;10.202;2023-11-19T12:56:16;95654.44;;;11.80;100.00
73941;BME280;62294;48.554;10.202;2023-11-19T12:58:43;95654.25;;;11.70;100.00
73941;BME280;62294;48.554;10.202;2023-11-19T13:01:18;95651.03;;;11.96;100.00
73941;BME280;62294;48.554;10.202;2023-11-19T13:03:46;95649.47;;;12.11;100.00
73941;BME280;62294;48.554;10.202;2023-11-19T13:06:15;95652.84;;;12.35;100.00
73941;BME280;62294;48.554;10.202;2023-11-19T13:08:49;95650.75;;;12.37;100.00
73941;BME280;62294;48.554;10.202;2023-11-19T13:11:32;95657.72;;;12.38;100.00
73941;BME280;62294;48.554;10.202;2023-11-19T13:14:01;95652.53;;;12.32;100.00
73941;BME280;62294;48.554;10.202;2023-11-19T13:16:29;95666.09;;;12.30;100.00